sensor_id;sensor_type;location;lat;lon;timestamp;pressure;altitude;pressure_sealevel;temperature;humidity
64053;BME280;50299;49.524;8.536;2024-01-07T00:00:30;100058.34;;;2.31;77.83
64053;BME280;50299;49.524;8.536;2024-01-07T00:02:57;100060.25;;;2.30;78.12
64053;BME280;50299;49.524;8.536;2024-01-07T00:05:24;100060.00;;;2.22;75.32
64053;BME280;50299;49.524;8.536;2024-01-07T00:07:50;100064.84;;;2.35;79.30
64053;BME280;50299;49.524;8.536;2024-01-07T00:10:18;100067.88;;;2.28;74.39
64053;BME280;50299;49.524;8.536;2024-01-07T00:12:44;100070.19;;;2.11;74.05
64053;BME280;50299;49.524;8.536;2024-01-07T00:15:11;100074.53;;;2.12;75.40
64053;BME280;50299;49.524;8.536;2024-01-07T00:17:37;100065.56;;;2.06;74.53
64053;BME280;50299;49.524;8.536;2024-01-07T00:20:05;100074.13;;;1.84;75.06
64053;BME280;50299;49.524;8.536;2024-01-07T00:22:34;100069.81;;;1.73;76.63
64053;BME280;50299;49.524;8.536;2024-01-07T00:25:00;100065.72;;;1.81;78.56
64053;BME280;50299;49.524;8.536;2024-01-07T00:27:27;100081.97;;;1.96;78.52
64053;BME280;50299;49.524;8.536;2024-01-07T00:29:53;100080.91;;;1.92;75.23
64053;BME280;50299;49.524;8.536;2024-01-07T00:32:19;100081.19;;;1.90;76.40
64053;BME280;50299;49.524;8.536;2024-01-07T00:34:46;100088.09;;;1.73;75.22
64053;BME280;50299;49.524;8.536;2024-01-07T00:37:12;100075.75;;;1.90;78.24
64053;BME280;50299;49.524;8.536;2024-01-07T00:39:39;100088.75;;;2.04;76.48
64053;BME280;50299;49.524;8.536;2024-01-07T00:42:05;100078.94;;;2.03;75.63
64053;BME280;50299;49.524;8.536;2024-01-07T00:44:32;100087.06;;;2.13;76.58
64053;BME280;50299;49.524;8.536;2024-01-07T00:46:59;100090.94;;;2.07;74.73
64053;BME280;50299;49.524;8.536;2024-01-07T00:49:26;100082.44;;;2.13;77.53
64053;BME280;50299;49.524;8.536;2024-01-07T00:51:54;100083.75;;;2.21;76.01
64053;BME280;50299;49.524;8.536;2024-01-07T00:54:20;100084.97;;;2.00;74.13
64053;BME280;50299;49.524;8.536;2024-01-07T00:56:47;100089.28;;;2.11;76.36
64053;BME280;50299;49.524;8.536;2024-01-07T00:59:13;100088.50;;;2.00;73.56
64053;BME280;50299;49.524;8.536;2024-01-07T01:01:40;100095.38;;;1.87;73.99
64053;BME280;50299;49.524;8.536;2024-01-07T01:04:06;100098.09;;;1.87;75.21
64053;BME280;50299;49.524;8.536;2024-01-07T01:06:33;100097.50;;;2.01;75.10
64053;BME280;50299;49.524;8.536;2024-01-07T01:08:59;100098.03;;;2.03;74.59
64053;BME280;50299;49.524;8.536;2024-01-07T01:11:26;100096.94;;;2.04;75.43
64053;BME280;50299;49.524;8.536;2024-01-07T01:13:52;100101.16;;;1.76;75.49
64053;BME280;50299;49.524;8.536;2024-01-07T01:16:19;100096.50;;;1.76;75.08
64053;BME280;50299;49.524;8.536;2024-01-07T01:18:50;100100.63;;;1.63;75.74
64053;BME280;50299;49.524;8.536;2024-01-07T01:21:17;100102.78;;;1.72;75.64
64053;BME280;50299;49.524;8.536;2024-01-07T01:23:43;100099.03;;;1.57;76.46
64053;BME280;50299;49.524;8.536;2024-01-07T01:26:10;100108.63;;;1.44;74.87
64053;BME280;50299;49.524;8.536;2024-01-07T01:28:36;100107.47;;;1.61;75.85
64053;BME280;50299;49.524;8.536;2024-01-07T01:31:03;100109.09;;;1.62;75.48
64053;BME280;50299;49.524;8.536;2024-01-07T01:33:30;100107.97;;;1.68;75.89
64053;BME280;50299;49.524;8.536;2024-01-07T01:35:56;100108.34;;;1.41;74.88
64053;BME280;50299;49.524;8.536;2024-01-07T01:38:23;100109.97;;;1.32;75.63
64053;BME280;50299;49.524;8.536;2024-01-07T01:40:53;100114.34;;;1.28;75.29
64053;BME280;50299;49.524;8.536;2024-01-07T01:43:26;100115.09;;;1.59;76.03
64053;BME280;50299;49.524;8.536;2024-01-07T01:45:54;100116.75;;;1.50;75.33
64053;BME280;50299;49.524;8.536;2024-01-07T01:48:22;100120.03;;;1.26;75.01
64053;BME280;50299;49.524;8.536;2024-01-07T01:50:49;100120.03;;;1.36;75.55
64053;BME280;50299;49.524;8.536;2024-01-07T01:53:16;100121.09;;;1.66;76.55
64053;BME280;50299;49.524;8.536;2024-01-07T01:55:43;100118.88;;;1.73;74.48
64053;BME280;50299;49.524;8.536;2024-01-07T01:58:09;100127.94;;;1.43;75.41
64053;BME280;50299;49.524;8.536;2024-01-07T02:00:36;100123.28;;;1.54;74.49
64053;BME280;50299;49.524;8.536;2024-01-07T02:03:03;100124.13;;;1.49;76.82
64053;BME280;50299;49.524;8.536;2024-01-07T02:05:44;100127.41;;;1.36;74.52
64053;BME280;50299;49.524;8.536;2024-01-07T02:08:11;100130.41;;;1.29;76.43
64053;BME280;50299;49.524;8.536;2024-01-07T02:10:37;100125.97;;;1.64;75.24
64053;BME280;50299;49.524;8.536;2024-01-07T02:13:07;100135.84;;;1.50;73.98
64053;BME280;50299;49.524;8.536;2024-01-07T02:15:34;100126.03;;;1.28;75.87
64053;BME280;50299;49.524;8.536;2024-01-07T02:18:01;100125.22;;;1.33;76.10
64053;BME280;50299;49.524;8.536;2024-01-07T02:20:27;100129.78;;;1.68;75.05
64053;BME280;50299;49.524;8.536;2024-01-07T02:22:54;100127.00;;;1.83;74.70
64053;BME280;50299;49.524;8.536;2024-01-07T02:25:20;100126.69;;;1.95;74.94
64053;BME280;50299;49.524;8.536;2024-01-07T02:27:47;100134.84;;;2.00;73.21
64053;BME280;50299;49.524;8.536;2024-01-07T02:30:13;100131.78;;;2.12;74.44
64053;BME280;50299;49.524;8.536;2024-01-07T02:32:42;100132.50;;;1.78;73.46
64053;BME280;50299;49.524;8.536;2024-01-07T02:35:09;100128.41;;;1.76;75.07
64053;BME280;50299;49.524;8.536;2024-01-07T02:37:35;100129.47;;;1.85;74.67
64053;BME280;50299;49.524;8.536;2024-01-07T02:40:02;100130.63;;;1.68;74.62
64053;BME280;50299;49.524;8.536;2024-01-07T02:42:29;100126.97;;;1.93;79.92
64053;BME280;50299;49.524;8.536;2024-01-07T02:44:55;100131.56;;;2.03;78.59
64053;BME280;50299;49.524;8.536;2024-01-07T02:47:22;100126.97;;;1.99;75.60
64053;BME280;50299;49.524;8.536;2024-01-07T02:49:48;100129.91;;;2.07;75.09
64053;BME280;50299;49.524;8.536;2024-01-07T02:52:15;100129.66;;;2.04;74.81
64053;BME280;50299;49.524;8.536;2024-01-07T02:54:41;100129.72;;;1.93;74.95
64053;BME280;50299;49.524;8.536;2024-01-07T02:57:08;100130.03;;;1.72;73.24
64053;BME280;50299;49.524;8.536;2024-01-07T02:59:34;100128.94;;;1.78;74.87
64053;BME280;50299;49.524;8.536;2024-01-07T03:02:01;100129.16;;;1.91;75.07
64053;BME280;50299;49.524;8.536;2024-01-07T03:04:27;100131.84;;;2.02;73.63
64053;BME280;50299;49.524;8.536;2024-01-07T03:06:54;100131.19;;;1.50;74.72
64053;BME280;50299;49.524;8.536;2024-01-07T03:09:25;100129.84;;;1.42;75.53
64053;BME280;50299;49.524;8.536;2024-01-07T03:11:52;100131.44;;;1.64;75.47
64053;BME280;50299;49.524;8.536;2024-01-07T03:14:20;100137.16;;;1.73;74.75
64053;BME280;50299;49.524;8.536;2024-01-07T03:16:47;100139.03;;;1.77;75.12
64053;BME280;50299;49.524;8.536;2024-01-07T03:19:14;100146.13;;;1.78;73.97
64053;BME280;50299;49.524;8.536;2024-01-07T03:21:42;100135.50;;;1.66;74.45
64053;BME280;50299;49.524;8.536;2024-01-07T03:24:08;100144.75;;;1.76;75.05
64053;BME280;50299;49.524;8.536;2024-01-07T03:26:35;100135.69;;;1.95;74.77
64053;BME280;50299;49.524;8.536;2024-01-07T03:29:02;100147.03;;;1.48;74.90
64053;BME280;50299;49.524;8.536;2024-01-07T03:31:28;100141.53;;;1.58;76.08
64053;BME280;50299;49.524;8.536;2024-01-07T03:33:55;100140.69;;;1.68;75.10
64053;BME280;50299;49.524;8.536;2024-01-07T03:36:22;100147.00;;;1.43;76.37
64053;BME280;50299;49.524;8.536;2024-01-07T03:38:49;100142.63;;;1.57;77.21
64053;BME280;50299;49.524;8.536;2024-01-07T03:41:16;100139.63;;;1.59;75.91
64053;BME280;50299;49.524;8.536;2024-01-07T03:43:45;100138.22;;;1.72;73.59
64053;BME280;50299;49.524;8.536;2024-01-07T03:46:12;100145.06;;;1.64;73.99
64053;BME280;50299;49.524;8.536;2024-01-07T03:48:39;100151.00;;;1.76;74.71
64053;BME280;50299;49.524;8.536;2024-01-07T03:51:05;100151.03;;;1.71;73.49
64053;BME280;50299;49.524;8.536;2024-01-07T03:53:32;100155.91;;;1.79;73.94
64053;BME280;50299;49.524;8.536;2024-01-07T03:55:59;100158.16;;;1.62;74.53
64053;BME280;50299;49.524;8.536;2024-01-07T03:58:25;100154.63;;;1.61;75.09
64053;BME280;50299;49.524;8.536;2024-01-07T04:00:51;100158.72;;;1.49;74.51
64053;BME280;50299;49.524;8.536;2024-01-07T04:03:18;100157.88;;;1.58;73.73
64053;BME280;50299;49.524;8.536;2024-01-07T04:05:45;100153.00;;;1.50;73.35
64053;BME280;50299;49.524;8.536;2024-01-07T04:08:12;100162.00;;;1.45;74.79
64053;BME280;50299;49.524;8.536;2024-01-07T04:10:38;100172.88;;;1.51;74.31
64053;BME280;50299;49.524;8.536;2024-01-07T04:13:05;100170.13;;;1.66;75.58
64053;BME280;50299;49.524;8.536;2024-01-07T04:15:31;100167.97;;;1.42;75.24
64053;BME280;50299;49.524;8.536;2024-01-07T04:18:01;100175.84;;;1.59;74.70
64053;BME280;50299;49.524;8.536;2024-01-07T04:20:28;100181.84;;;1.77;72.77
64053;BME280;50299;49.524;8.536;2024-01-07T04:22:55;100174.25;;;1.38;73.95
64053;BME280;50299;49.524;8.536;2024-01-07T04:25:23;100179.94;;;1.52;73.42
64053;BME280;50299;49.524;8.536;2024-01-07T04:27:49;100185.13;;;1.68;72.87
64053;BME280;50299;49.524;8.536;2024-01-07T04:30:16;100169.63;;;1.23;75.28
64053;BME280;50299;49.524;8.536;2024-01-07T04:32:42;100177.53;;;1.40;74.47
64053;BME280;50299;49.524;8.536;2024-01-07T04:35:09;100180.53;;;1.49;73.68
64053;BME280;50299;49.524;8.536;2024-01-07T04:37:37;100176.69;;;1.24;72.98
64053;BME280;50299;49.524;8.536;2024-01-07T04:40:04;100183.22;;;1.33;74.54
64053;BME280;50299;49.524;8.536;2024-01-07T04:42:31;100183.25;;;1.49;74.14
64053;BME280;50299;49.524;8.536;2024-01-07T04:44:57;100192.47;;;1.63;74.28
64053;BME280;50299;49.524;8.536;2024-01-07T04:47:29;100191.16;;;1.45;73.06
64053;BME280;50299;49.524;8.536;2024-01-07T04:49:56;100191.94;;;1.56;74.92
64053;BME280;50299;49.524;8.536;2024-01-07T04:52:24;100185.09;;;1.79;72.20
64053;BME280;50299;49.524;8.536;2024-01-07T04:54:51;100192.44;;;1.78;71.55
64053;BME280;50299;49.524;8.536;2024-01-07T04:57:18;100193.19;;;1.99;72.05
64053;BME280;50299;49.524;8.536;2024-01-07T04:59:46;100196.75;;;2.00;73.04
64053;BME280;50299;49.524;8.536;2024-01-07T05:02:15;100201.47;;;1.63;72.42
64053;BME280;50299;49.524;8.536;2024-01-07T05:04:48;100202.28;;;1.74;73.03
64053;BME280;50299;49.524;8.536;2024-01-07T05:07:28;100198.47;;;1.65;74.57
64053;BME280;50299;49.524;8.536;2024-01-07T05:09:55;100198.72;;;1.74;72.46
64053;BME280;50299;49.524;8.536;2024-01-07T05:12:21;100208.88;;;1.48;73.06
64053;BME280;50299;49.524;8.536;2024-01-07T05:14:48;100203.13;;;1.64;74.85
64053;BME280;50299;49.524;8.536;2024-01-07T05:17:14;100213.72;;;1.71;74.65
64053;BME280;50299;49.524;8.536;2024-01-07T05:19:40;100212.03;;;1.90;71.86
64053;BME280;50299;49.524;8.536;2024-01-07T05:22:07;100219.41;;;1.80;71.34
64053;BME280;50299;49.524;8.536;2024-01-07T05:24:37;100213.69;;;1.76;73.01
64053;BME280;50299;49.524;8.536;2024-01-07T05:27:05;100218.06;;;1.77;72.93
64053;BME280;50299;49.524;8.536;2024-01-07T05:29:32;100219.94;;;1.87;74.07
64053;BME280;50299;49.524;8.536;2024-01-07T05:32:01;100218.63;;;1.64;73.10
64053;BME280;50299;49.524;8.536;2024-01-07T05:34:29;100227.63;;;1.64;73.46
64053;BME280;50299;49.524;8.536;2024-01-07T05:36:55;100224.91;;;1.49;72.60
64053;BME280;50299;49.524;8.536;2024-01-07T05:39:22;100225.72;;;0.99;74.56
64053;BME280;50299;49.524;8.536;2024-01-07T05:41:48;100218.06;;;1.26;74.62
64053;BME280;50299;49.524;8.536;2024-01-07T05:44:15;100229.28;;;1.45;74.04
64053;BME280;50299;49.524;8.536;2024-01-07T05:46:43;100230.38;;;1.49;73.45
64053;BME280;50299;49.524;8.536;2024-01-07T05:49:09;100231.44;;;1.33;73.17
64053;BME280;50299;49.524;8.536;2024-01-07T05:51:39;100230.66;;;1.37;76.55
64053;BME280;50299;49.524;8.536;2024-01-07T05:54:06;100236.34;;;1.51;75.67
64053;BME280;50299;49.524;8.536;2024-01-07T05:56:38;100241.25;;;1.64;74.80
64053;BME280;50299;49.524;8.536;2024-01-07T05:59:05;100238.28;;;1.61;74.31
64053;BME280;50299;49.524;8.536;2024-01-07T06:01:32;100240.44;;;1.74;73.46
64053;BME280;50299;49.524;8.536;2024-01-07T06:03:58;100250.22;;;1.75;72.43
64053;BME280;50299;49.524;8.536;2024-01-07T06:06:25;100251.34;;;1.59;74.88
64053;BME280;50299;49.524;8.536;2024-01-07T06:08:52;100251.63;;;1.52;73.56
64053;BME280;50299;49.524;8.536;2024-01-07T06:11:19;100261.41;;;1.58;73.06
64053;BME280;50299;49.524;8.536;2024-01-07T06:13:46;100256.78;;;1.54;73.92
64053;BME280;50299;49.524;8.536;2024-01-07T06:16:13;100262.25;;;1.69;73.57
64053;BME280;50299;49.524;8.536;2024-01-07T06:18:40;100257.59;;;1.75;72.77
64053;BME280;50299;49.524;8.536;2024-01-07T06:21:06;100258.16;;;1.77;74.10
64053;BME280;50299;49.524;8.536;2024-01-07T06:23:33;100266.00;;;1.99;73.91
64053;BME280;50299;49.524;8.536;2024-01-07T06:25:59;100263.25;;;2.04;72.19
64053;BME280;50299;49.524;8.536;2024-01-07T06:28:26;100268.72;;;1.99;74.05
64053;BME280;50299;49.524;8.536;2024-01-07T06:30:52;100266.31;;;1.72;74.15
64053;BME280;50299;49.524;8.536;2024-01-07T06:33:24;100274.47;;;1.87;74.68
64053;BME280;50299;49.524;8.536;2024-01-07T06:35:51;100279.38;;;1.80;72.94
64053;BME280;50299;49.524;8.536;2024-01-07T06:38:18;100286.47;;;1.76;73.29
64053;BME280;50299;49.524;8.536;2024-01-07T06:40:44;100290.03;;;1.71;74.39
64053;BME280;50299;49.524;8.536;2024-01-07T06:43:10;100285.09;;;1.83;72.87
64053;BME280;50299;49.524;8.536;2024-01-07T06:45:37;100291.94;;;1.81;74.03
64053;BME280;50299;49.524;8.536;2024-01-07T06:48:04;100286.75;;;1.74;72.45
64053;BME280;50299;49.524;8.536;2024-01-07T06:50:30;100294.06;;;1.23;74.96
64053;BME280;50299;49.524;8.536;2024-01-07T06:52:57;100301.47;;;1.63;73.82
64053;BME280;50299;49.524;8.536;2024-01-07T06:55:23;100293.25;;;1.27;73.80
64053;BME280;50299;49.524;8.536;2024-01-07T06:57:50;100297.66;;;1.59;75.09
64053;BME280;50299;49.524;8.536;2024-01-07T07:00:19;100299.81;;;1.72;74.55
64053;BME280;50299;49.524;8.536;2024-01-07T07:02:46;100308.00;;;1.47;74.78
64053;BME280;50299;49.524;8.536;2024-01-07T07:05:12;100315.09;;;1.68;73.78
64053;BME280;50299;49.524;8.536;2024-01-07T07:07:39;100324.38;;;1.77;73.50
64053;BME280;50299;49.524;8.536;2024-01-07T07:10:05;100320.28;;;1.49;73.69
64053;BME280;50299;49.524;8.536;2024-01-07T07:12:32;100318.91;;;1.52;75.34
64053;BME280;50299;49.524;8.536;2024-01-07T07:14:58;100325.19;;;1.73;73.35
64053;BME280;50299;49.524;8.536;2024-01-07T07:17:25;100337.44;;;1.75;74.45
64053;BME280;50299;49.524;8.536;2024-01-07T07:19:51;100332.53;;;1.72;75.31
64053;BME280;50299;49.524;8.536;2024-01-07T07:22:18;100334.72;;;1.70;73.16
64053;BME280;50299;49.524;8.536;2024-01-07T07:24:44;100340.19;;;1.85;74.11
64053;BME280;50299;49.524;8.536;2024-01-07T07:27:11;100347.25;;;1.86;73.12
64053;BME280;50299;49.524;8.536;2024-01-07T07:29:37;100354.06;;;1.84;74.76
64053;BME280;50299;49.524;8.536;2024-01-07T07:32:04;100350.22;;;1.39;73.43
64053;BME280;50299;49.524;8.536;2024-01-07T07:34:31;100359.16;;;1.19;76.06
64053;BME280;50299;49.524;8.536;2024-01-07T07:36:58;100353.78;;;1.44;75.43
64053;BME280;50299;49.524;8.536;2024-01-07T07:39:24;100360.81;;;1.35;75.46
64053;BME280;50299;49.524;8.536;2024-01-07T07:41:51;100358.41;;;1.44;74.20
64053;BME280;50299;49.524;8.536;2024-01-07T07:44:17;100366.59;;;1.49;73.81
64053;BME280;50299;49.524;8.536;2024-01-07T07:46:44;100370.94;;;1.45;73.70
64053;BME280;50299;49.524;8.536;2024-01-07T07:49:10;100366.31;;;1.40;75.85
64053;BME280;50299;49.524;8.536;2024-01-07T07:51:38;100367.44;;;1.65;76.04
64053;BME280;50299;49.524;8.536;2024-01-07T07:54:05;100371.78;;;1.71;75.39
64053;BME280;50299;49.524;8.536;2024-01-07T07:56:31;100376.13;;;1.62;72.84
64053;BME280;50299;49.524;8.536;2024-01-07T07:58:58;100375.22;;;1.15;77.75
64053;BME280;50299;49.524;8.536;2024-01-07T08:01:24;100384.28;;;1.47;80.61
64053;BME280;50299;49.524;8.536;2024-01-07T08:03:51;100381.47;;;1.11;77.20
64053;BME280;50299;49.524;8.536;2024-01-07T08:06:17;100383.66;;;1.19;76.51
64053;BME280;50299;49.524;8.536;2024-01-07T08:08:45;100382.13;;;0.76;77.82
64053;BME280;50299;49.524;8.536;2024-01-07T08:11:12;100386.91;;;1.11;76.84
64053;BME280;50299;49.524;8.536;2024-01-07T08:13:38;100386.69;;;1.28;76.31
64053;BME280;50299;49.524;8.536;2024-01-07T08:16:06;100390.47;;;1.27;76.17
64053;BME280;50299;49.524;8.536;2024-01-07T08:18:33;100394.03;;;1.27;74.32
64053;BME280;50299;49.524;8.536;2024-01-07T08:21:00;100401.41;;;1.32;73.94
64053;BME280;50299;49.524;8.536;2024-01-07T08:23:26;100405.31;;;1.56;72.66
64053;BME280;50299;49.524;8.536;2024-01-07T08:25:53;100405.97;;;1.16;73.98
64053;BME280;50299;49.524;8.536;2024-01-07T08:28:20;100403.25;;;1.26;74.07
64053;BME280;50299;49.524;8.536;2024-01-07T08:30:47;100407.41;;;1.39;74.14
64053;BME280;50299;49.524;8.536;2024-01-07T08:33:13;100412.63;;;1.51;71.87
64053;BME280;50299;49.524;8.536;2024-01-07T08:35:40;100411.44;;;1.26;74.12
64053;BME280;50299;49.524;8.536;2024-01-07T08:38:07;100415.19;;;1.10;72.96
64053;BME280;50299;49.524;8.536;2024-01-07T08:40:33;100413.25;;;1.00;74.48
64053;BME280;50299;49.524;8.536;2024-01-07T08:43:01;100417.97;;;1.30;72.86
64053;BME280;50299;49.524;8.536;2024-01-07T08:45:28;100427.53;;;0.70;70.32
64053;BME280;50299;49.524;8.536;2024-01-07T08:47:55;100431.69;;;0.83;72.74
64053;BME280;50299;49.524;8.536;2024-01-07T08:50:22;100427.97;;;0.52;73.13
64053;BME280;50299;49.524;8.536;2024-01-07T08:52:48;100433.34;;;0.41;72.81
64053;BME280;50299;49.524;8.536;2024-01-07T08:55:15;100434.75;;;0.49;72.63
64053;BME280;50299;49.524;8.536;2024-01-07T08:57:44;100448.78;;;0.36;72.48
64053;BME280;50299;49.524;8.536;2024-01-07T09:00:12;100433.69;;;0.50;72.08
64053;BME280;50299;49.524;8.536;2024-01-07T09:02:38;100440.53;;;0.58;73.74
64053;BME280;50299;49.524;8.536;2024-01-07T09:05:09;100448.09;;;0.13;72.49
64053;BME280;50299;49.524;8.536;2024-01-07T09:07:36;100451.84;;;0.44;70.75
64053;BME280;50299;49.524;8.536;2024-01-07T09:10:02;100450.00;;;-0.14;73.69
64053;BME280;50299;49.524;8.536;2024-01-07T09:12:29;100465.28;;;0.24;73.89
64053;BME280;50299;49.524;8.536;2024-01-07T09:14:56;100460.44;;;0.31;73.36
64053;BME280;50299;49.524;8.536;2024-01-07T09:17:22;100460.22;;;0.01;71.51
64053;BME280;50299;49.524;8.536;2024-01-07T09:19:49;100458.16;;;0.13;73.30
64053;BME280;50299;49.524;8.536;2024-01-07T09:22:15;100466.13;;;0.25;74.35
64053;BME280;50299;49.524;8.536;2024-01-07T09:24:42;100480.72;;;0.51;72.15
64053;BME280;50299;49.524;8.536;2024-01-07T09:27:08;100468.19;;;0.12;71.07
64053;BME280;50299;49.524;8.536;2024-01-07T09:29:35;100476.47;;;0.28;72.07
64053;BME280;50299;49.524;8.536;2024-01-07T09:32:01;100478.16;;;-0.53;73.76
64053;BME280;50299;49.524;8.536;2024-01-07T09:34:27;100477.03;;;-0.30;74.54
64053;BME280;50299;49.524;8.536;2024-01-07T09:36:54;100483.19;;;0.20;72.45
64053;BME280;50299;49.524;8.536;2024-01-07T09:39:21;100480.66;;;0.08;71.37
64053;BME280;50299;49.524;8.536;2024-01-07T09:41:47;100483.72;;;0.49;69.45
64053;BME280;50299;49.524;8.536;2024-01-07T09:44:14;100487.56;;;0.21;70.10
64053;BME280;50299;49.524;8.536;2024-01-07T09:46:41;100493.22;;;0.46;69.36
64053;BME280;50299;49.524;8.536;2024-01-07T09:49:08;100486.19;;;0.56;69.01
64053;BME280;50299;49.524;8.536;2024-01-07T09:51:35;100486.69;;;0.47;69.94
64053;BME280;50299;49.524;8.536;2024-01-07T09:54:03;100499.09;;;0.65;69.43
64053;BME280;50299;49.524;8.536;2024-01-07T09:56:39;100496.19;;;0.82;69.37
64053;BME280;50299;49.524;8.536;2024-01-07T09:59:08;100500.16;;;1.07;69.79
64053;BME280;50299;49.524;8.536;2024-01-07T10:01:36;100500.19;;;1.17;69.75
64053;BME280;50299;49.524;8.536;2024-01-07T10:04:04;100498.16;;;0.50;67.32
64053;BME280;50299;49.524;8.536;2024-01-07T10:06:31;100504.31;;;0.77;68.78
64053;BME280;50299;49.524;8.536;2024-01-07T10:08:58;100504.78;;;0.69;68.27
64053;BME280;50299;49.524;8.536;2024-01-07T10:11:25;100509.47;;;0.09;66.43
64053;BME280;50299;49.524;8.536;2024-01-07T10:13:53;100514.69;;;0.48;65.93
64053;BME280;50299;49.524;8.536;2024-01-07T10:16:19;100511.19;;;0.53;64.86
64053;BME280;50299;49.524;8.536;2024-01-07T10:18:46;100502.94;;;0.37;66.01
64053;BME280;50299;49.524;8.536;2024-01-07T10:21:13;100502.19;;;0.84;65.44
64053;BME280;50299;49.524;8.536;2024-01-07T10:23:40;100510.94;;;0.49;65.92
64053;BME280;50299;49.524;8.536;2024-01-07T10:26:06;100494.47;;;0.34;67.76
64053;BME280;50299;49.524;8.536;2024-01-07T10:28:45;100489.94;;;0.12;69.58
64053;BME280;50299;49.524;8.536;2024-01-07T10:31:12;100511.88;;;0.33;65.51
64053;BME280;50299;49.524;8.536;2024-01-07T10:33:41;100514.88;;;0.36;69.33
64053;BME280;50299;49.524;8.536;2024-01-07T10:36:09;100509.75;;;0.40;68.28
64053;BME280;50299;49.524;8.536;2024-01-07T10:38:35;100505.53;;;0.22;64.60
64053;BME280;50299;49.524;8.536;2024-01-07T10:41:04;100515.13;;;0.67;67.92
64053;BME280;50299;49.524;8.536;2024-01-07T10:43:35;100522.63;;;0.87;66.07
64053;BME280;50299;49.524;8.536;2024-01-07T10:46:02;100513.78;;;0.05;68.09
64053;BME280;50299;49.524;8.536;2024-01-07T10:48:31;100522.03;;;0.47;65.28
64053;BME280;50299;49.524;8.536;2024-01-07T10:51:01;100525.88;;;0.19;66.94
64053;BME280;50299;49.524;8.536;2024-01-07T10:53:33;100529.91;;;0.81;67.53
64053;BME280;50299;49.524;8.536;2024-01-07T10:56:03;100533.03;;;1.00;65.42
64053;BME280;50299;49.524;8.536;2024-01-07T10:58:33;100539.22;;;1.33;65.80
64053;BME280;50299;49.524;8.536;2024-01-07T11:01:02;100542.19;;;0.84;59.85
64053;BME280;50299;49.524;8.536;2024-01-07T11:06:45;100541.97;;;0.21;64.43
64053;BME280;50299;49.524;8.536;2024-01-07T11:09:23;100536.47;;;0.16;61.80
64053;BME280;50299;49.524;8.536;2024-01-07T11:11:50;100537.63;;;-0.02;63.51
64053;BME280;50299;49.524;8.536;2024-01-07T11:14:39;100538.94;;;0.50;64.28
64053;BME280;50299;49.524;8.536;2024-01-07T11:17:07;100541.72;;;0.60;62.53
64053;BME280;50299;49.524;8.536;2024-01-07T11:19:35;100536.31;;;0.65;64.72
64053;BME280;50299;49.524;8.536;2024-01-07T11:22:28;100549.16;;;1.07;60.04
64053;BME280;50299;49.524;8.536;2024-01-07T11:24:56;100540.72;;;1.13;61.31
64053;BME280;50299;49.524;8.536;2024-01-07T11:27:25;100541.06;;;0.80;60.45
64053;BME280;50299;49.524;8.536;2024-01-07T11:29:56;100546.66;;;1.00;60.53
64053;BME280;50299;49.524;8.536;2024-01-07T11:32:23;100539.63;;;1.09;60.22
64053;BME280;50299;49.524;8.536;2024-01-07T11:34:53;100551.81;;;0.32;59.70
64053;BME280;50299;49.524;8.536;2024-01-07T11:37:20;100540.47;;;0.72;60.83
64053;BME280;50299;49.524;8.536;2024-01-07T11:39:50;100554.31;;;0.66;58.74
64053;BME280;50299;49.524;8.536;2024-01-07T11:42:17;100542.03;;;0.63;62.43
64053;BME280;50299;49.524;8.536;2024-01-07T11:44:54;100550.84;;;0.76;59.09
64053;BME280;50299;49.524;8.536;2024-01-07T11:47:22;100548.41;;;0.42;60.56
64053;BME280;50299;49.524;8.536;2024-01-07T11:49:49;100548.06;;;0.33;59.52
64053;BME280;50299;49.524;8.536;2024-01-07T11:52:16;100555.59;;;0.26;59.74
64053;BME280;50299;49.524;8.536;2024-01-07T11:54:43;100547.13;;;0.55;59.00
64053;BME280;50299;49.524;8.536;2024-01-07T11:57:10;100550.13;;;0.90;57.22
64053;BME280;50299;49.524;8.536;2024-01-07T11:59:37;100560.94;;;0.48;60.42
64053;BME280;50299;49.524;8.536;2024-01-07T12:02:07;100555.16;;;0.39;61.74
64053;BME280;50299;49.524;8.536;2024-01-07T12:04:34;100562.03;;;0.20;59.91
64053;BME280;50299;49.524;8.536;2024-01-07T12:07:01;100561.53;;;0.50;60.26
64053;BME280;50299;49.524;8.536;2024-01-07T12:09:29;100569.50;;;0.30;61.85
64053;BME280;50299;49.524;8.536;2024-01-07T12:11:57;100568.16;;;0.05;61.19
64053;BME280;50299;49.524;8.536;2024-01-07T12:14:24;100562.03;;;0.20;63.08
64053;BME280;50299;49.524;8.536;2024-01-07T12:16:51;100561.22;;;0.46;61.11
64053;BME280;50299;49.524;8.536;2024-01-07T12:19:17;100572.59;;;0.43;59.80
64053;BME280;50299;49.524;8.536;2024-01-07T12:21:44;100567.25;;;0.21;61.21
64053;BME280;50299;49.524;8.536;2024-01-07T12:24:10;100579.56;;;0.29;58.05
64053;BME280;50299;49.524;8.536;2024-01-07T12:26:37;100579.44;;;0.46;57.84
64053;BME280;50299;49.524;8.536;2024-01-07T12:29:04;100577.28;;;0.85;59.38
64053;BME280;50299;49.524;8.536;2024-01-07T12:31:34;100576.13;;;1.13;61.97
64053;BME280;50299;49.524;8.536;2024-01-07T12:34:02;100587.31;;;1.17;56.50
64053;BME280;50299;49.524;8.536;2024-01-07T12:36:30;100588.41;;;0.79;57.01
64053;BME280;50299;49.524;8.536;2024-01-07T12:38:57;100587.97;;;-0.43;60.29
64053;BME280;50299;49.524;8.536;2024-01-07T12:41:25;100588.72;;;0.23;61.49
64053;BME280;50299;49.524;8.536;2024-01-07T12:43:51;100581.38;;;-0.04;60.28
64053;BME280;50299;49.524;8.536;2024-01-07T12:46:18;100580.09;;;0.31;61.16
64053;BME280;50299;49.524;8.536;2024-01-07T12:48:44;100592.94;;;0.36;61.14
64053;BME280;50299;49.524;8.536;2024-01-07T12:51:11;100596.19;;;0.33;59.93
64053;BME280;50299;49.524;8.536;2024-01-07T12:53:37;100600.41;;;-0.25;59.34
64053;BME280;50299;49.524;8.536;2024-01-07T12:56:04;100596.69;;;-0.80;61.07
64053;BME280;50299;49.524;8.536;2024-01-07T12:58:31;100606.19;;;-0.99;59.67
64053;BME280;50299;49.524;8.536;2024-01-07T13:01:00;100603.28;;;-0.76;60.97
64053;BME280;50299;49.524;8.536;2024-01-07T13:03:27;100605.13;;;-0.60;63.30